sensor_id;sensor_type;location;lat;lon;timestamp;pressure;altitude;pressure_sealevel;temperature;humidity
10921;BME280;5513;50.580;8.818;2023-02-11T00:01:21;100953.50;;;1.73;100.00
10921;BME280;5513;50.580;8.818;2023-02-11T00:03:52;100952.69;;;1.74;100.00
10921;BME280;5513;50.580;8.818;2023-02-11T00:06:22;100960.50;;;1.77;100.00
10921;BME280;5513;50.580;8.818;2023-02-11T00:08:51;100962.22;;;1.67;100.00
10921;BME280;5513;50.580;8.818;2023-02-11T00:11:21;100958.72;;;1.64;100.00
10921;BME280;5513;50.580;8.818;2023-02-11T00:13:52;100969.19;;;1.67;100.00
10921;BME280;5513;50.580;8.818;2023-02-11T00:16:20;100965.72;;;1.80;100.00
10921;BME280;5513;50.580;8.818;2023-02-11T00:18:49;100948.31;;;1.76;100.00
10921;BME280;5513;50.580;8.818;2023-02-11T00:21:22;100946.56;;;1.81;100.00
10921;BME280;5513;50.580;8.818;2023-02-11T00:23:52;100947.44;;;1.88;100.00
10921;BME280;5513;50.580;8.818;2023-02-11T00:26:21;100945.69;;;1.79;100.00
10921;BME280;5513;50.580;8.818;2023-02-11T00:28:52;100947.44;;;1.74;100.00
10921;BME280;5513;50.580;8.818;2023-02-11T00:31:23;100949.16;;;1.69;100.00
10921;BME280;5513;50.580;8.818;2023-02-11T00:33:52;100946.56;;;1.87;100.00
10921;BME280;5513;50.580;8.818;2023-02-11T00:36:22;100950.06;;;1.66;100.00
10921;BME280;5513;50.580;8.818;2023-02-11T00:38:51;100951.78;;;1.92;100.00
10921;BME280;5513;50.580;8.818;2023-02-11T00:41:21;100952.69;;;1.86;100.00
10921;BME280;5513;50.580;8.818;2023-02-11T00:43:49;100948.31;;;1.84;100.00
10921;BME280;5513;50.580;8.818;2023-02-11T00:46:19;100943.94;;;1.70;100.00
10921;BME280;5513;50.580;8.818;2023-02-11T00:48:48;100943.09;;;1.84;100.00
10921;BME280;5513;50.580;8.818;2023-02-11T00:51:17;100947.44;;;1.80;100.00
10921;BME280;5513;50.580;8.818;2023-02-11T00:53:47;100954.41;;;1.80;100.00
10921;BME280;5513;50.580;8.818;2023-02-11T00:56:18;100940.47;;;1.67;100.00
10921;BME280;5513;50.580;8.818;2023-02-11T00:58:46;100937.88;;;1.78;100.00
10921;BME280;5513;50.580;8.818;2023-02-11T01:01:14;100947.44;;;1.65;100.00
10921;BME280;5513;50.580;8.818;2023-02-11T01:03:44;100939.59;;;1.71;100.00
10921;BME280;5513;50.580;8.818;2023-02-11T01:06:14;100932.59;;;1.53;100.00
10921;BME280;5513;50.580;8.818;2023-02-11T01:08:43;100934.34;;;1.63;100.00
10921;BME280;5513;50.580;8.818;2023-02-11T01:11:13;100927.41;;;1.59;100.00
10921;BME280;5513;50.580;8.818;2023-02-11T01:13:43;100919.53;;;1.52;100.00
10921;BME280;5513;50.580;8.818;2023-02-11T01:16:11;100923.91;;;1.60;100.00
10921;BME280;5513;50.580;8.818;2023-02-11T01:18:41;100919.56;;;1.47;100.00
10921;BME280;5513;50.580;8.818;2023-02-11T01:21:11;100912.59;;;1.54;100.00
10921;BME280;5513;50.580;8.818;2023-02-11T01:23:40;100908.25;;;1.62;100.00
10921;BME280;5513;50.580;8.818;2023-02-11T01:26:09;100902.16;;;1.70;100.00
10921;BME280;5513;50.580;8.818;2023-02-11T01:28:37;100903.88;;;1.71;100.00
10921;BME280;5513;50.580;8.818;2023-02-11T01:31:06;100899.53;;;1.80;100.00
10921;BME280;5513;50.580;8.818;2023-02-11T01:33:34;100899.56;;;1.66;100.00
10921;BME280;5513;50.580;8.818;2023-02-11T01:36:06;100893.44;;;1.87;100.00
10921;BME280;5513;50.580;8.818;2023-02-11T01:38:35;100889.94;;;1.83;100.00
10921;BME280;5513;50.580;8.818;2023-02-11T01:41:08;100887.34;;;1.94;100.00
10921;BME280;5513;50.580;8.818;2023-02-11T01:43:40;100886.47;;;1.78;100.00
10921;BME280;5513;50.580;8.818;2023-02-11T01:46:31;100891.69;;;1.89;100.00
10921;BME280;5513;50.580;8.818;2023-02-11T01:49:05;100895.19;;;1.88;100.00
10921;BME280;5513;50.580;8.818;2023-02-11T01:51:37;100891.69;;;1.99;100.00
10921;BME280;5513;50.580;8.818;2023-02-11T01:54:09;100888.19;;;2.00;100.00
10921;BME280;5513;50.580;8.818;2023-02-11T01:56:57;100891.69;;;1.99;100.00
10921;BME280;5513;50.580;8.818;2023-02-11T01:59:47;100891.69;;;2.07;100.00
10921;BME280;5513;50.580;8.818;2023-02-11T02:02:22;100881.25;;;1.90;100.00
10921;BME280;5513;50.580;8.818;2023-02-11T02:04:56;100890.81;;;1.91;100.00
10921;BME280;5513;50.580;8.818;2023-02-11T02:07:31;100888.19;;;1.93;100.00
10921;BME280;5513;50.580;8.818;2023-02-11T02:10:08;100898.66;;;1.99;100.00
10921;BME280;5513;50.580;8.818;2023-02-11T02:12:38;100897.78;;;1.97;100.00
10921;BME280;5513;50.580;8.818;2023-02-11T02:15:21;100899.53;;;1.96;100.00
10921;BME280;5513;50.580;8.818;2023-02-11T02:17:58;100903.03;;;1.77;100.00
10921;BME280;5513;50.580;8.818;2023-02-11T02:21:06;100896.03;;;1.99;100.00
10921;BME280;5513;50.580;8.818;2023-02-11T02:27:21;100906.50;;;1.99;100.00
10921;BME280;5513;50.580;8.818;2023-02-11T02:30:15;100897.78;;;1.97;100.00
10921;BME280;5513;50.580;8.818;2023-02-11T02:32:55;100903.88;;;2.00;100.00
10921;BME280;5513;50.580;8.818;2023-02-11T02:35:37;100896.91;;;2.07;100.00
10921;BME280;5513;50.580;8.818;2023-02-11T02:38:12;100896.91;;;2.09;100.00
10921;BME280;5513;50.580;8.818;2023-02-11T02:40:46;100887.28;;;2.27;100.00
10921;BME280;5513;50.580;8.818;2023-02-11T02:43:17;100886.41;;;2.21;100.00
10921;BME280;5513;50.580;8.818;2023-02-11T02:45:46;100885.56;;;2.17;100.00
10921;BME280;5513;50.580;8.818;2023-02-11T02:48:25;100881.19;;;2.21;100.00
10921;BME280;5513;50.580;8.818;2023-02-11T02:51:00;100881.22;;;2.10;100.00
10921;BME280;5513;50.580;8.818;2023-02-11T02:53:43;100864.66;;;2.17;100.00
10921;BME280;5513;50.580;8.818;2023-02-11T02:56:24;100866.38;;;2.21;100.00
10921;BME280;5513;50.580;8.818;2023-02-11T02:59:20;100859.41;;;2.23;100.00
10921;BME280;5513;50.580;8.818;2023-02-11T03:01:56;100845.47;;;2.26;100.00
10921;BME280;5513;50.580;8.818;2023-02-11T03:04:36;100848.13;;;2.14;100.00
10921;BME280;5513;50.580;8.818;2023-02-11T03:07:11;100836.78;;;2.03;100.00
10921;BME280;5513;50.580;8.818;2023-02-11T03:09:49;100839.41;;;2.01;100.00
10921;BME280;5513;50.580;8.818;2023-02-11T03:12:19;100826.41;;;1.84;100.00
10921;BME280;5513;50.580;8.818;2023-02-11T03:14:51;100829.84;;;2.06;100.00
10921;BME280;5513;50.580;8.818;2023-02-11T03:17:20;100824.63;;;2.03;100.00
10921;BME280;5513;50.580;8.818;2023-02-11T03:19:52;100820.31;;;1.85;100.00
10921;BME280;5513;50.580;8.818;2023-02-11T03:22:24;100821.13;;;2.04;100.00
10921;BME280;5513;50.580;8.818;2023-02-11T03:24:54;100822.84;;;2.11;100.00
10921;BME280;5513;50.580;8.818;2023-02-11T03:27:26;100822.84;;;2.14;100.00
10921;BME280;5513;50.580;8.818;2023-02-11T03:30:00;100811.53;;;2.11;100.00
10921;BME280;5513;50.580;8.818;2023-02-11T03:32:36;100823.72;;;2.15;100.00
10921;BME280;5513;50.580;8.818;2023-02-11T03:35:10;100814.13;;;2.23;100.00
10921;BME280;5513;50.580;8.818;2023-02-11T03:37:47;100820.19;;;2.20;100.00
10921;BME280;5513;50.580;8.818;2023-02-11T03:40:20;100815.91;;;2.04;100.00
10921;BME280;5513;50.580;8.818;2023-02-11T03:42:52;100827.19;;;2.12;100.00
10921;BME280;5513;50.580;8.818;2023-02-11T03:45:22;100821.09;;;2.18;100.00
10921;BME280;5513;50.580;8.818;2023-02-11T03:47:55;100818.47;;;2.16;100.00
10921;BME280;5513;50.580;8.818;2023-02-11T03:50:26;100819.41;;;2.05;100.00
10921;BME280;5513;50.580;8.818;2023-02-11T03:52:58;100822.88;;;2.00;100.00
10921;BME280;5513;50.580;8.818;2023-02-11T03:55:28;100821.97;;;2.09;100.00
10921;BME280;5513;50.580;8.818;2023-02-11T03:58:00;100815.88;;;2.03;100.00
10921;BME280;5513;50.580;8.818;2023-02-11T04:00:29;100821.97;;;2.17;100.00
10921;BME280;5513;50.580;8.818;2023-02-11T04:02:58;100819.38;;;2.15;100.00
10921;BME280;5513;50.580;8.818;2023-02-11T04:05:29;100817.56;;;2.26;100.00
10921;BME280;5513;50.580;8.818;2023-02-11T04:07:59;100807.09;;;2.34;100.00
10921;BME280;5513;50.580;8.818;2023-02-11T04:10:27;100788.78;;;2.34;100.00
10921;BME280;5513;50.580;8.818;2023-02-11T04:12:56;100789.75;;;2.13;100.00
10921;BME280;5513;50.580;8.818;2023-02-11T04:15:25;100801.00;;;2.32;100.00
10921;BME280;5513;50.580;8.818;2023-02-11T04:17:54;100803.63;;;2.26;100.00
10921;BME280;5513;50.580;8.818;2023-02-11T04:20:23;100815.81;;;2.33;100.00
10921;BME280;5513;50.580;8.818;2023-02-11T04:22:52;100814.03;;;2.40;100.00
10921;BME280;5513;50.580;8.818;2023-02-11T04:25:20;100802.75;;;2.33;100.00
10921;BME280;5513;50.580;8.818;2023-02-11T04:27:49;100803.63;;;2.34;100.00
10921;BME280;5513;50.580;8.818;2023-02-11T04:30:18;100807.03;;;2.48;100.00
10921;BME280;5513;50.580;8.818;2023-02-11T04:32:46;100805.31;;;2.45;100.00
10921;BME280;5513;50.580;8.818;2023-02-11T04:35:14;100814.91;;;2.45;100.00
10921;BME280;5513;50.580;8.818;2023-02-11T04:37:42;100822.75;;;2.39;100.00
10921;BME280;5513;50.580;8.818;2023-02-11T04:40:12;100814.00;;;2.49;100.00
10921;BME280;5513;50.580;8.818;2023-02-11T04:42:40;100813.16;;;2.42;100.00
10921;BME280;5513;50.580;8.818;2023-02-11T04:45:09;100795.78;;;2.34;100.00
10921;BME280;5513;50.580;8.818;2023-02-11T04:47:37;100786.19;;;2.34;100.00
10921;BME280;5513;50.580;8.818;2023-02-11T04:50:06;100789.72;;;2.22;100.00
10921;BME280;5513;50.580;8.818;2023-02-11T04:52:34;100789.72;;;2.18;100.00
10921;BME280;5513;50.580;8.818;2023-02-11T04:55:02;100790.63;;;2.06;100.00
10921;BME280;5513;50.580;8.818;2023-02-11T04:57:32;100797.59;;;2.07;100.00
10921;BME280;5513;50.580;8.818;2023-02-11T05:00:03;100793.19;;;2.20;100.00
10921;BME280;5513;50.580;8.818;2023-02-11T05:02:31;100804.53;;;2.19;100.00
10921;BME280;5513;50.580;8.818;2023-02-11T05:05:00;100815.00;;;2.08;100.00
10921;BME280;5513;50.580;8.818;2023-02-11T05:07:28;100813.25;;;2.18;100.00
10921;BME280;5513;50.580;8.818;2023-02-11T05:09:56;100804.53;;;2.19;100.00
10921;BME280;5513;50.580;8.818;2023-02-11T05:12:24;100796.72;;;2.08;100.00
10921;BME280;5513;50.580;8.818;2023-02-11T05:14:54;100791.50;;;2.02;100.00
10921;BME280;5513;50.580;8.818;2023-02-11T05:17:23;100799.34;;;2.08;100.00
10921;BME280;5513;50.580;8.818;2023-02-11T05:19:51;100803.72;;;1.91;100.00
10921;BME280;5513;50.580;8.818;2023-02-11T05:22:19;100813.28;;;2.03;100.00
10921;BME280;5513;50.580;8.818;2023-02-11T05:24:48;100808.94;;;2.05;100.00
10921;BME280;5513;50.580;8.818;2023-02-11T05:27:18;100803.69;;;2.11;100.00
10921;BME280;5513;50.580;8.818;2023-02-11T05:29:47;100798.44;;;2.12;100.00
10921;BME280;5513;50.580;8.818;2023-02-11T05:32:17;100794.97;;;2.03;100.00
10921;BME280;5513;50.580;8.818;2023-02-11T05:34:45;100799.31;;;2.11;100.00
10921;BME280;5513;50.580;8.818;2023-02-11T05:37:13;100793.22;;;2.11;100.00
10921;BME280;5513;50.580;8.818;2023-02-11T05:39:42;100788.06;;;1.95;100.00
10921;BME280;5513;50.580;8.818;2023-02-11T05:42:12;100800.19;;;2.12;100.00
10921;BME280;5513;50.580;8.818;2023-02-11T05:44:41;100801.06;;;2.09;100.00
10921;BME280;5513;50.580;8.818;2023-02-11T05:47:09;100805.41;;;2.12;100.00
10921;BME280;5513;50.580;8.818;2023-02-11T05:49:40;100813.25;;;2.10;100.00
10921;BME280;5513;50.580;8.818;2023-02-11T05:52:12;100809.81;;;1.93;100.00
10921;BME280;5513;50.580;8.818;2023-02-11T05:54:42;100801.94;;;2.10;100.00
10921;BME280;5513;50.580;8.818;2023-02-11T05:57:15;100806.31;;;2.14;100.00
10921;BME280;5513;50.580;8.818;2023-02-11T05:59:44;100812.41;;;2.10;100.00
10921;BME280;5513;50.580;8.818;2023-02-11T06:02:12;100805.41;;;2.18;100.00
10921;BME280;5513;50.580;8.818;2023-02-11T06:04:42;100806.28;;;2.17;100.00
10921;BME280;5513;50.580;8.818;2023-02-11T06:07:10;100797.56;;;2.16;100.00
10921;BME280;5513;50.580;8.818;2023-02-11T06:09:39;100795.75;;;2.37;100.00
10921;BME280;5513;50.580;8.818;2023-02-11T06:12:07;100791.41;;;2.31;100.00
10921;BME280;5513;50.580;8.818;2023-02-11T06:14:35;100792.31;;;2.27;100.00
10921;BME280;5513;50.580;8.818;2023-02-11T06:17:04;100787.13;;;2.16;100.00
10921;BME280;5513;50.580;8.818;2023-02-11T06:19:33;100790.56;;;2.21;100.00
10921;BME280;5513;50.580;8.818;2023-02-11T06:22:03;100786.22;;;2.19;100.00
10921;BME280;5513;50.580;8.818;2023-02-11T06:24:32;100787.16;;;1.99;100.00
10921;BME280;5513;50.580;8.818;2023-02-11T06:27:20;100783.59;;;2.26;100.00
10921;BME280;5513;50.580;8.818;2023-02-11T06:29:50;100782.69;;;2.30;100.00
10921;BME280;5513;50.580;8.818;2023-02-11T06:32:19;100784.44;;;2.33;100.00
10921;BME280;5513;50.580;8.818;2023-02-11T06:35:07;100777.47;;;2.27;100.00
10921;BME280;5513;50.580;8.818;2023-02-11T06:37:41;100781.78;;;2.39;100.00
10921;BME280;5513;50.580;8.818;2023-02-11T06:40:10;100783.63;;;2.23;100.00
10921;BME280;5513;50.580;8.818;2023-02-11T06:42:39;100783.59;;;2.28;100.00
10921;BME280;5513;50.580;8.818;2023-02-11T06:45:08;100784.50;;;2.10;100.00
10921;BME280;5513;50.580;8.818;2023-02-11T06:47:37;100787.13;;;2.09;100.00
10921;BME280;5513;50.580;8.818;2023-02-11T06:50:09;100784.53;;;2.01;100.00
10921;BME280;5513;50.580;8.818;2023-02-11T06:52:37;100793.31;;;1.88;100.00
10921;BME280;5513;50.580;8.818;2023-02-11T06:55:07;100788.06;;;1.88;100.00
10921;BME280;5513;50.580;8.818;2023-02-11T06:57:36;100795.91;;;1.95;100.00
10921;BME280;5513;50.580;8.818;2023-02-11T07:00:06;100799.41;;;1.87;100.00
10921;BME280;5513;50.580;8.818;2023-02-11T07:02:35;100799.38;;;1.91;100.00
10921;BME280;5513;50.580;8.818;2023-02-11T07:05:05;100792.44;;;1.86;100.00
10921;BME280;5513;50.580;8.818;2023-02-11T07:07:33;100780.22;;;1.89;100.00
10921;BME280;5513;50.580;8.818;2023-02-11T07:10:02;100787.22;;;1.86;100.00
10921;BME280;5513;50.580;8.818;2023-02-11T07:12:33;100795.94;;;1.85;100.00
10921;BME280;5513;50.580;8.818;2023-02-11T07:15:02;100802.00;;;1.91;100.00
10921;BME280;5513;50.580;8.818;2023-02-11T07:17:30;100798.53;;;1.94;100.00
10921;BME280;5513;50.580;8.818;2023-02-11T07:19:58;100806.34;;;2.03;100.00
10921;BME280;5513;50.580;8.818;2023-02-11T07:22:28;100806.31;;;2.08;100.00
10921;BME280;5513;50.580;8.818;2023-02-11T07:24:56;100814.09;;;2.26;100.00
10921;BME280;5513;50.580;8.818;2023-02-11T07:27:25;100821.13;;;2.13;100.00
10921;BME280;5513;50.580;8.818;2023-02-11T07:29:54;100821.94;;;2.24;100.00
10921;BME280;5513;50.580;8.818;2023-02-11T07:32:23;100824.47;;;2.41;100.00
10921;BME280;5513;50.580;8.818;2023-02-11T07:34:51;100833.19;;;2.45;100.00
10921;BME280;5513;50.580;8.818;2023-02-11T07:37:19;100823.63;;;2.42;100.00
10921;BME280;5513;50.580;8.818;2023-02-11T07:39:49;100834.13;;;2.21;100.00
10921;BME280;5513;50.580;8.818;2023-02-11T07:42:17;100838.47;;;2.31;100.00
10921;BME280;5513;50.580;8.818;2023-02-11T07:44:46;100838.47;;;2.34;100.00
10921;BME280;5513;50.580;8.818;2023-02-11T07:47:17;100847.16;;;2.44;100.00
10921;BME280;5513;50.580;8.818;2023-02-11T07:49:46;100857.63;;;2.42;100.00
10921;BME280;5513;50.580;8.818;2023-02-11T07:52:14;100851.50;;;2.39;100.00
10921;BME280;5513;50.580;8.818;2023-02-11T07:54:42;100848.91;;;2.39;100.00
10921;BME280;5513;50.580;8.818;2023-02-11T07:57:10;100848.91;;;2.42;100.00
10921;BME280;5513;50.580;8.818;2023-02-11T07:59:39;100842.72;;;2.56;100.00
10921;BME280;5513;50.580;8.818;2023-02-11T08:02:08;100843.63;;;2.54;100.00
10921;BME280;5513;50.580;8.818;2023-02-11T08:04:38;100847.94;;;2.64;100.00
10921;BME280;5513;50.580;8.818;2023-02-11T08:07:06;100846.19;;;2.65;100.00
10921;BME280;5513;50.580;8.818;2023-02-11T08:09:34;100861.00;;;2.72;100.00
10921;BME280;5513;50.580;8.818;2023-02-11T08:12:04;100854.94;;;2.61;100.00
10921;BME280;5513;50.580;8.818;2023-02-11T08:14:32;100861.88;;;2.66;100.00
10921;BME280;5513;50.580;8.818;2023-02-11T08:17:01;100848.69;;;2.87;100.00
10921;BME280;5513;50.580;8.818;2023-02-11T08:19:29;100855.72;;;2.81;100.00
10921;BME280;5513;50.580;8.818;2023-02-11T08:22:02;100856.56;;;2.84;100.00
10921;BME280;5513;50.580;8.818;2023-02-11T08:24:30;100857.44;;;2.82;100.00
10921;BME280;5513;50.580;8.818;2023-02-11T08:26:58;100860.94;;;2.78;100.00
10921;BME280;5513;50.580;8.818;2023-02-11T08:29:26;100855.75;;;2.73;100.00
10921;BME280;5513;50.580;8.818;2023-02-11T08:31:56;100856.56;;;2.84;100.00
10921;BME280;5513;50.580;8.818;2023-02-11T08:34:24;100862.69;;;2.79;100.00
10921;BME280;5513;50.580;8.818;2023-02-11T08:36:53;100870.56;;;2.73;100.00
10921;BME280;5513;50.580;8.818;2023-02-11T08:39:23;100861.88;;;2.65;100.00
10921;BME280;5513;50.580;8.818;2023-02-11T08:41:53;100864.47;;;2.68;100.00
10921;BME280;5513;50.580;8.818;2023-02-11T08:44:24;100860.22;;;2.51;100.00
10921;BME280;5513;50.580;8.818;2023-02-11T08:46:53;100854.06;;;2.57;100.00
10921;BME280;5513;50.580;8.818;2023-02-11T08:49:21;100864.50;;;2.63;100.00
10921;BME280;5513;50.580;8.818;2023-02-11T08:51:49;100872.34;;;2.60;100.00
10921;BME280;5513;50.580;8.818;2023-02-11T08:54:18;100875.81;;;2.70;100.00
10921;BME280;5513;50.580;8.818;2023-02-11T08:56:49;100883.63;;;2.80;100.00
10921;BME280;5513;50.580;8.818;2023-02-11T08:59:18;100892.31;;;2.79;100.00
10921;BME280;5513;50.580;8.818;2023-02-11T09:01:47;100894.94;;;2.84;100.00
10921;BME280;5513;50.580;8.818;2023-02-11T09:04:17;100891.47;;;2.79;100.00
10921;BME280;5513;50.580;8.818;2023-02-11T09:06:45;100894.94;;;2.82;100.00
10921;BME280;5513;50.580;8.818;2023-02-11T09:09:15;100891.38;;;2.99;100.00
10921;BME280;5513;50.580;8.818;2023-02-11T09:11:44;100893.97;;;3.03;100.00
10921;BME280;5513;50.580;8.818;2023-02-11T09:14:19;100889.66;;;2.95;100.00
10921;BME280;5513;50.580;8.818;2023-02-11T09:16:48;100893.09;;;3.04;100.00
10921;BME280;5513;50.580;8.818;2023-02-11T09:19:17;100885.22;;;3.09;100.00
10921;BME280;5513;50.580;8.818;2023-02-11T09:21:45;100881.72;;;3.10;100.00
10921;BME280;5513;50.580;8.818;2023-02-11T09:24:14;100872.06;;;3.16;100.00
10921;BME280;5513;50.580;8.818;2023-02-11T09:26:42;100884.25;;;3.25;100.00
10921;BME280;5513;50.580;8.818;2023-02-11T09:29:10;100884.22;;;3.27;100.00
10921;BME280;5513;50.580;8.818;2023-02-11T09:31:40;100885.97;;;3.31;100.00
10921;BME280;5513;50.580;8.818;2023-02-11T09:34:09;100885.94;;;3.34;100.00
10921;BME280;5513;50.580;8.818;2023-02-11T09:36:39;100886.78;;;3.36;100.00
10921;BME280;5513;50.580;8.818;2023-02-11T09:39:11;100889.44;;;3.31;100.00
10921;BME280;5513;50.580;8.818;2023-02-11T09:41:49;100892.81;;;3.50;100.00
10921;BME280;5513;50.580;8.818;2023-02-11T09:44:24;100899.81;;;3.47;100.00
10921;BME280;5513;50.580;8.818;2023-02-11T09:46:55;100896.44;;;3.31;100.00
10921;BME280;5513;50.580;8.818;2023-02-11T09:49:31;100897.22;;;3.43;100.00
10921;BME280;5513;50.580;8.818;2023-02-11T09:52:04;100901.50;;;3.54;100.00
10921;BME280;5513;50.580;8.818;2023-02-11T09:54:36;100898.09;;;3.44;100.00
10921;BME280;5513;50.580;8.818;2023-02-11T09:57:08;100896.38;;;3.41;100.00
10921;BME280;5513;50.580;8.818;2023-02-11T09:59:55;100899.06;;;3.26;100.00
10921;BME280;5513;50.580;8.818;2023-02-11T10:02:29;100898.25;;;3.18;100.00
10921;BME280;5513;50.580;8.818;2023-02-11T10:05:23;100898.09;;;3.42;100.00
10921;BME280;5513;50.580;8.818;2023-02-11T10:08:00;100895.47;;;3.44;100.00
10921;BME280;5513;50.580;8.818;2023-02-11T10:10:43;100887.66;;;3.38;100.00
10921;BME280;5513;50.580;8.818;2023-02-11T10:13:31;100900.81;;;3.24;100.00
10921;BME280;5513;50.580;8.818;2023-02-11T10:16:23;100898.09;;;3.44;100.00
10921;BME280;5513;50.580;8.818;2023-02-11T10:19:06;100902.47;;;3.42;100.00
10921;BME280;5513;50.580;8.818;2023-02-11T10:21:45;100908.59;;;3.39;100.00
10921;BME280;5513;50.580;8.818;2023-02-11T10:24:17;100900.84;;;3.21;100.00
10921;BME280;5513;50.580;8.818;2023-02-11T10:26:47;100906.88;;;3.35;100.00
10921;BME280;5513;50.580;8.818;2023-02-11T10:29:26;100900.75;;;3.35;100.00
10921;BME280;5513;50.580;8.818;2023-02-11T10:32:04;100894.59;;;3.48;100.00
10921;BME280;5513;50.580;8.818;2023-02-11T10:34:40;100899.06;;;3.29;100.00
10921;BME280;5513;50.580;8.818;2023-02-11T10:37:12;100903.44;;;3.24;100.00
10921;BME280;5513;50.580;8.818;2023-02-11T10:39:41;100901.63;;;3.38;100.00
10921;BME280;5513;50.580;8.818;2023-02-11T10:42:11;100899.88;;;3.40;100.00
10921;BME280;5513;50.580;8.818;2023-02-11T10:44:45;100911.22;;;3.41;100.00
10921;BME280;5513;50.580;8.818;2023-02-11T10:47:20;100918.22;;;3.39;100.00
10921;BME280;5513;50.580;8.818;2023-02-11T10:49:51;100919.97;;;3.34;100.00
10921;BME280;5513;50.580;8.818;2023-02-11T10:52:22;100917.28;;;3.46;100.00
10921;BME280;5513;50.580;8.818;2023-02-11T10:55:02;100911.09;;;3.56;100.00
10921;BME280;5513;50.580;8.818;2023-02-11T10:57:35;100912.69;;;3.74;100.00
10921;BME280;5513;50.580;8.818;2023-02-11T11:00:18;100910.81;;;3.91;100.00
10921;BME280;5513;50.580;8.818;2023-02-11T11:02:53;100918.78;;;3.81;100.00
10921;BME280;5513;50.580;8.818;2023-02-11T11:05:28;100909.94;;;3.92;100.00
10921;BME280;5513;50.580;8.818;2023-02-11T11:07:59;100913.47;;;3.90;100.00
10921;BME280;5513;50.580;8.818;2023-02-11T11:10:35;100915.16;;;3.97;100.00
10921;BME280;5513;50.580;8.818;2023-02-11T11:13:26;100916.91;;;3.93;100.00
10921;BME280;5513;50.580;8.818;2023-02-11T11:16:20;100915.28;;;3.80;100.00
10921;BME280;5513;50.580;8.818;2023-02-11T11:18:51;100912.53;;;3.94;100.00
10921;BME280;5513;50.580;8.818;2023-02-11T11:21:23;100905.63;;;3.87;100.00
10921;BME280;5513;50.580;8.818;2023-02-11T11:23:55;100906.44;;;3.93;100.00
10921;BME280;5513;50.580;8.818;2023-02-11T11:26:26;100910.84;;;3.90;100.00
10921;BME280;5513;50.580;8.818;2023-02-11T11:29:00;100902.91;;;3.94;100.00
10921;BME280;5513;50.580;8.818;2023-02-11T11:31:32;100902.09;;;3.89;100.00
10921;BME280;5513;50.580;8.818;2023-02-11T11:34:13;100905.63;;;3.84;100.00
10921;BME280;5513;50.580;8.818;2023-02-11T11:36:48;100902.28;;;3.68;100.00
10921;BME280;5513;50.580;8.818;2023-02-11T11:39:20;100897.81;;;3.79;100.00
10921;BME280;5513;50.580;8.818;2023-02-11T11:41:51;100901.34;;;3.77;100.00
10921;BME280;5513;50.580;8.818;2023-02-11T11:44:25;100909.19;;;3.78;100.00
10921;BME280;5513;50.580;8.818;2023-02-11T11:47:17;100910.03;;;3.82;100.00
10921;BME280;5513;50.580;8.818;2023-02-11T11:49:51;100911.75;;;3.87;100.00
10921;BME280;5513;50.580;8.818;2023-02-11T11:52:34;100914.38;;;3.87;100.00
10921;BME280;5513;50.580;8.818;2023-02-11T11:55:10;100909.94;;;3.91;100.00
10921;BME280;5513;50.580;8.818;2023-02-11T11:57:40;100907.38;;;3.85;100.00
10921;BME280;5513;50.580;8.818;2023-02-11T12:00:16;100911.66;;;3.96;100.00
10921;BME280;5513;50.580;8.818;2023-02-11T12:03:24;100902.06;;;3.94;100.00
10921;BME280;5513;50.580;8.818;2023-02-11T12:06:06;100912.34;;;4.17;100.00
10921;BME280;5513;50.580;8.818;2023-02-11T12:08:45;100900.88;;;4.27;100.00
10921;BME280;5513;50.580;8.818;2023-02-11T12:11:23;100908.69;;;4.31;100.00
10921;BME280;5513;50.580;8.818;2023-02-11T12:14:09;100899.91;;;4.36;100.00
10921;BME280;5513;50.580;8.818;2023-02-11T12:16:52;100905.28;;;4.25;100.00
10921;BME280;5513;50.580;8.818;2023-02-11T12:19:41;100900.63;;;4.50;100.00
10921;BME280;5513;50.580;8.818;2023-02-11T12:22:25;100904.06;;;4.53;100.00
10921;BME280;5513;50.580;8.818;2023-02-11T12:25:16;100898.88;;;4.49;100.00
10921;BME280;5513;50.580;8.818;2023-02-11T12:27:49;100894.38;;;4.60;100.00
10921;BME280;5513;50.580;8.818;2023-02-11T12:30:43;100901.25;;;4.73;100.00
10921;BME280;5513;50.580;8.818;2023-02-11T12:33:26;100899.72;;;4.52;100.00
10921;BME280;5513;50.580;8.818;2023-02-11T12:36:06;100895.22;;;4.65;100.00
10921;BME280;5513;50.580;8.818;2023-02-11T12:39:00;100889.09;;;4.65;100.00
10921;BME280;5513;50.580;8.818;2023-02-11T12:41:56;100889.00;;;4.71;100.00
10921;BME280;5513;50.580;8.818;2023-02-11T12:44:58;100893.34;;;4.72;100.00
10921;BME280;5513;50.580;8.818;2023-02-11T12:47:44;100888.97;;;4.72;100.00
10921;BME280;5513;50.580;8.818;2023-02-11T12:50:21;100894.13;;;4.83;100.00
10921;BME280;5513;50.580;8.818;2023-02-11T12:53:11;100882.78;;;4.79;100.00
10921;BME280;5513;50.580;8.818;2023-02-11T12:55:46;100877.47;;;4.85;100.00
10921;BME280;5513;50.580;8.818;2023-02-11T12:58:20;100878.38;;;4.83;100.00
10921;BME280;5513;50.580;8.818;2023-02-11T13:01:13;100875.00;;;4.73;100.00
10921;BME280;5513;50.580;8.818;2023-02-11T13:03:46;100869.66;;;4.78;100.00
10921;BME280;5513;50.580;8.818;2023-02-11T13:06:19;100879.13;;;4.93;100.00
10921;BME280;5513;50.580;8.818;2023-02-11T13:08:51;100870.16;;;5.07;100.00
10921;BME280;5513;50.580;8.818;2023-02-11T13:11:23;100867.69;;;4.95;100.00
10921;BME280;5513;50.580;8.818;2023-02-11T13:13:57;100876.38;;;5.00;100.00
10921;BME280;5513;50.580;8.818;2023-02-11T13:16:34;100870.97;;;5.11;100.00
10921;BME280;5513;50.580;8.818;2023-02-11T13:19:13;100881.34;;;5.20;100.00
10921;BME280;5513;50.580;8.818;2023-02-11T13:21:52;100881.66;;;4.97;100.00
10921;BME280;5513;50.580;8.818;2023-02-11T13:24:28;100874.47;;;5.10;100.00
10921;BME280;5513;50.580;8.818;2023-02-11T13:27:09;100873.47;;;5.22;100.00
10921;BME280;5513;50.580;8.818;2023-02-11T13:33:01;100872.25;;;5.44;100.00
10921;BME280;5513;50.580;8.818;2023-02-11T13:35:31;100889.81;;;5.42;100.00
10921;BME280;5513;50.580;8.818;2023-02-11T13:38:02;100888.22;;;5.29;100.00